Time;durP1;ratioP1;P1;durP2;ratioP2;P2;SDS_P1;SDS_P2;PMS_P1;PMS_P2;Temp;Humidity;BMP_temperature;BMP_pressure;BME280_temperature;BME280_humidity;BME280_pressure;Samples;Min_cycle;Max_cycle;Signal;HPM_P1;HPM_P2
2022/03/10 00:01:47;;;;;;;2.25;1.65;;;22.60;56.60;;;;;;4935552;29;20196;-58
2022/03/10 00:04:18;;;;;;;2.33;1.90;;;22.60;56.60;;;;;;4935348;29;20726;-58
2022/03/10 00:06:50;;;;;;;1.83;1.73;;;22.70;56.70;;;;;;4935299;29;20751;-58
2022/03/10 00:09:21;;;;;;;1.80;1.70;;;22.70;56.60;;;;;;4935127;29;20203;-58
2022/03/10 00:11:51;;;;;;;1.92;1.73;;;22.70;56.60;;;;;;4935213;29;20204;-60
2022/03/10 00:14:22;;;;;;;2.20;2.00;;;22.70;56.60;;;;;;4935085;29;20554;-60
2022/03/10 00:16:53;;;;;;;2.53;2.10;;;22.80;56.70;;;;;;4930080;29;20286;-57
2022/03/10 00:19:24;;;;;;;3.17;1.98;;;22.80;56.90;;;;;;4933094;29;20203;-58
2022/03/10 00:21:56;;;;;;;2.40;2.20;;;22.80;57.00;;;;;;4933746;29;20263;-58
2022/03/10 00:24:27;;;;;;;3.22;2.20;;;22.80;57.00;;;;;;4933256;29;20219;-58
2022/03/10 00:26:57;;;;;;;2.92;2.05;;;22.80;56.90;;;;;;4933600;29;20203;-59
2022/03/10 00:29:28;;;;;;;2.25;2.05;;;22.80;56.90;;;;;;4934090;29;20196;-56
2022/03/10 00:31:59;;;;;;;2.38;2.05;;;22.90;56.90;;;;;;4933591;29;20203;-58
2022/03/10 00:34:30;;;;;;;2.38;2.00;;;22.90;56.90;;;;;;4933659;29;20279;-58
2022/03/10 00:37:02;;;;;;;2.88;2.00;;;22.90;56.90;;;;;;4933085;29;20223;-58
2022/03/10 00:39:33;;;;;;;3.13;2.00;;;22.90;56.80;;;;;;4931115;29;20208;-58
2022/03/10 00:42:04;;;;;;;3.92;2.00;;;22.90;56.80;;;;;;4932914;29;20200;-57
2022/03/10 00:44:35;;;;;;;2.17;1.65;;;23.00;56.80;;;;;;4933159;29;20251;-58
2022/03/10 00:47:06;;;;;;;2.42;2.13;;;23.00;57.10;;;;;;4932847;29;20199;-57
2022/03/10 00:49:36;;;;;;;3.00;2.15;;;23.00;57.20;;;;;;4933185;29;20207;-58
2022/03/10 00:52:09;;;;;;;2.35;2.15;;;23.00;57.20;;;;;;4932122;29;20207;-58
2022/03/10 00:54:40;;;;;;;2.00;1.65;;;23.00;57.10;;;;;;4933130;29;20211;-58
2022/03/10 00:57:10;;;;;;;2.85;1.88;;;23.10;57.20;;;;;;4932812;29;20223;-55
2022/03/10 00:59:41;;;;;;;2.83;2.00;;;23.10;57.20;;;;;;4933350;29;20203;-59
2022/03/10 01:02:11;;;;;;;4.00;1.92;;;23.10;57.10;;;;;;4933257;29;20259;-57
2022/03/10 01:04:43;;;;;;;2.75;1.92;;;23.10;57.10;;;;;;4932919;29;20231;-57
2022/03/10 01:07:16;;;;;;;1.90;1.70;;;23.20;57.10;;;;;;4933035;29;20678;-57
2022/03/10 01:09:46;;;;;;;2.55;2.13;;;23.20;57.10;;;;;;4932451;29;20242;-52
2022/03/10 01:12:17;;;;;;;2.35;2.10;;;23.20;57.00;;;;;;4932742;29;20247;-58
2022/03/10 01:14:47;;;;;;;2.47;1.98;;;23.20;57.70;;;;;;4932247;29;20280;-57
2022/03/10 01:17:18;;;;;;;3.22;2.15;;;23.20;57.00;;;;;;4930612;29;20227;-49
2022/03/10 01:19:48;;;;;;;3.15;1.92;;;23.30;57.10;;;;;;4932505;29;20199;-57
2022/03/10 01:22:21;;;;;;;2.40;2.20;;;23.30;57.00;;;;;;4931752;29;20195;-55
2022/03/10 01:24:52;;;;;;;2.22;2.03;;;23.30;57.00;;;;;;4932913;29;20266;-59
2022/03/10 01:27:22;;;;;;;2.75;2.10;;;23.30;57.00;;;;;;4931543;29;20270;-59
2022/03/10 01:29:53;;;;;;;2.10;1.90;;;23.30;57.00;;;;;;4932509;29;20251;-57
2022/03/10 01:32:23;;;;;;;3.85;1.98;;;23.30;57.00;;;;;;4932384;29;20204;-58
2022/03/10 01:34:54;;;;;;;3.13;2.03;;;23.30;57.00;;;;;;4932458;29;20219;-55
2022/03/10 01:37:27;;;;;;;2.70;2.10;;;23.30;57.00;;;;;;4932482;29;20227;-58
2022/03/10 01:39:57;;;;;;;3.40;2.10;;;23.40;57.10;;;;;;4932447;29;20715;-55
2022/03/10 01:42:28;;;;;;;3.85;2.17;;;23.40;57.10;;;;;;4932192;29;20234;-56
2022/03/10 01:44:59;;;;;;;2.72;2.15;;;23.40;57.10;;;;;;4932236;29;20278;-59
2022/03/10 01:47:29;;;;;;;2.00;1.80;;;23.50;57.10;;;;;;4931771;29;20195;-57
2022/03/10 01:50:00;;;;;;;2.70;1.98;;;23.40;57.10;;;;;;4931837;29;20195;-50
2022/03/10 01:52:33;;;;;;;2.28;2.03;;;23.50;57.10;;;;;;4931667;29;20726;-58
2022/03/10 01:55:05;;;;;;;2.67;2.25;;;23.50;57.10;;;;;;4930720;29;20287;-57
2022/03/10 01:57:36;;;;;;;3.33;2.00;;;23.50;57.00;;;;;;4932234;29;20274;-58
2022/03/10 02:00:08;;;;;;;3.03;2.35;;;23.60;57.10;;;;;;4932008;29;20217;-54
2022/03/10 02:02:38;;;;;;;2.65;2.20;;;23.60;57.10;;;;;;4931736;29;20251;-57
2022/03/10 02:05:09;;;;;;;3.08;2.20;;;23.60;57.10;;;;;;4931273;29;20231;-57
2022/03/10 02:10:31;;;;;;;2.42;2.00;;;23.60;57.20;;;;;;4931663;29;20331;-50
2022/03/10 02:13:01;;;;;;;4.43;2.13;;;23.70;57.20;;;;;;4931311;29;20215;-56
2022/03/10 02:18:19;;;;;;;2.28;2.00;;;23.70;57.30;;;;;;4931011;29;21414;-58
2022/03/10 02:20:50;;;;;;;2.40;2.20;;;23.70;57.30;;;;;;4932037;29;20274;-51
2022/03/10 02:23:22;;;;;;;3.75;2.30;;;23.70;57.20;;;;;;4931355;29;20599;-57
2022/03/10 02:25:53;;;;;;;3.70;2.20;;;23.80;57.20;;;;;;4930890;29;20204;-58
2022/03/10 02:28:27;;;;;;;2.60;2.40;;;23.80;57.10;;;;;;4931622;29;20200;-56
2022/03/10 02:30:57;;;;;;;2.33;2.13;;;23.80;57.10;;;;;;4931156;29;20255;-52
2022/03/10 02:33:28;;;;;;;3.30;2.58;;;23.80;57.10;;;;;;4931248;29;20264;-58
2022/03/10 02:35:59;;;;;;;2.40;2.20;;;23.90;57.30;;;;;;4931265;29;20200;-59
2022/03/10 02:38:31;;;;;;;2.55;2.00;;;23.90;57.00;;;;;;4930631;29;20691;-49
2022/03/10 02:41:02;;;;;;;2.42;2.17;;;23.90;57.00;;;;;;4931618;29;20200;-59
2022/03/10 02:43:32;;;;;;;2.28;1.95;;;23.90;56.90;;;;;;4935199;29;20281;-51
2022/03/10 02:46:04;;;;;;;3.38;2.35;;;24.00;56.90;;;;;;4951474;28;20199;-55
2022/03/10 02:48:34;;;;;;;4.03;2.30;;;24.00;56.90;;;;;;4951166;28;20210;-55
2022/03/10 02:51:05;;;;;;;3.28;2.13;;;24.00;56.80;;;;;;4950371;28;20262;-58
2022/03/10 02:53:37;;;;;;;6.47;2.78;;;24.00;56.80;;;;;;4950391;28;20218;-55
2022/03/10 02:56:08;;;;;;;3.97;2.35;;;24.10;56.70;;;;;;4933657;28;20354;-57
2022/03/10 02:58:39;;;;;;;2.50;2.22;;;24.10;56.60;;;;;;4912358;29;20267;-56
2022/03/10 03:01:09;;;;;;;6.82;2.72;;;24.10;56.60;;;;;;4933664;29;20215;-58
2022/03/10 03:03:40;;;;;;;3.08;2.30;;;24.20;56.60;;;;;;4936471;29;20267;-59
2022/03/10 04:08:27;;;;;;;3.17;2.17;;;24.90;55.50;;;;;;5055481;23;20226;-50
2022/03/10 04:10:57;;;;;;;3.63;2.33;;;24.90;55.50;;;;;;4951882;28;20194;-48
2022/03/10 04:13:28;;;;;;;3.92;2.30;;;24.90;55.40;;;;;;4956398;28;20214;-50
2022/03/10 04:15:58;;;;;;;3.53;1.80;;;25.00;55.40;;;;;;4971817;28;20203;-50
2022/03/10 04:18:29;;;;;;;3.78;2.20;;;25.00;55.40;;;;;;4972075;28;20237;-52
2022/03/10 04:21:00;;;;;;;2.00;1.80;;;25.00;55.30;;;;;;4971916;28;20213;-49
2022/03/10 04:23:32;;;;;;;2.25;2.05;;;25.00;55.20;;;;;;4971914;28;20305;-51
2022/03/10 04:26:03;;;;;;;3.80;2.20;;;25.10;55.20;;;;;;4971160;28;20542;-50
2022/03/10 04:28:33;;;;;;;2.80;2.35;;;25.10;55.20;;;;;;4972061;28;20194;-51
2022/03/10 04:31:04;;;;;;;3.70;2.10;;;25.10;55.10;;;;;;4971578;28;20195;-49
2022/03/10 04:33:35;;;;;;;3.15;2.30;;;25.10;55.10;;;;;;4972277;28;20218;-49
2022/03/10 04:36:06;;;;;;;2.25;2.05;;;25.10;55.00;;;;;;4972455;28;20271;-49
2022/03/10 04:38:39;;;;;;;3.17;2.40;;;25.20;55.00;;;;;;4973075;28;20230;-50
2022/03/10 04:41:10;;;;;;;3.00;1.95;;;25.20;55.00;;;;;;4973022;28;20198;-47
2022/03/10 04:43:40;;;;;;;2.28;2.08;;;25.20;55.00;;;;;;4972596;28;20210;-47
2022/03/10 04:46:11;;;;;;;3.63;1.90;;;25.30;55.00;;;;;;4972616;28;20257;-50
2022/03/10 04:48:42;;;;;;;2.55;2.25;;;25.30;54.90;;;;;;4972986;28;20206;-48
2022/03/10 04:51:13;;;;;;;6.00;2.60;;;25.30;54.90;;;;;;4973430;28;20206;-48
2022/03/10 04:53:46;;;;;;;3.60;2.08;;;25.30;54.80;;;;;;4974595;28;20229;-48
2022/03/10 04:56:16;;;;;;;3.17;2.28;;;25.30;54.70;;;;;;4974829;28;20253;-48
2022/03/10 04:58:47;;;;;;;3.97;2.28;;;25.30;54.60;;;;;;4974646;28;20225;-47
2022/03/10 05:01:18;;;;;;;3.03;1.80;;;25.40;54.70;;;;;;4974491;28;20245;-48
2022/03/10 05:03:50;;;;;;;4.60;2.15;;;25.40;54.60;;;;;;4973625;28;20269;-47
2022/03/10 05:06:20;;;;;;;3.80;2.33;;;25.40;54.50;;;;;;4971055;28;20202;-47
2022/03/10 05:08:53;;;;;;;2.58;2.17;;;25.40;54.50;;;;;;4969183;28;20214;-46
2022/03/10 05:11:23;;;;;;;3.15;2.25;;;25.40;54.50;;;;;;4971722;28;20254;-47
2022/03/10 05:13:55;;;;;;;3.60;2.20;;;25.40;54.40;;;;;;4970876;28;20686;-47
2022/03/10 05:16:25;;;;;;;3.63;1.88;;;25.40;54.30;;;;;;4970492;28;20198;-47
2022/03/10 05:18:56;;;;;;;3.25;2.20;;;25.40;54.20;;;;;;4969578;28;20689;-47
2022/03/10 05:21:26;;;;;;;5.93;2.40;;;25.40;54.30;;;;;;4968595;28;20273;-50
2022/03/10 05:23:59;;;;;;;3.47;2.22;;;25.40;54.20;;;;;;4969208;28;20218;-47
2022/03/10 05:26:29;;;;;;;2.95;2.10;;;25.40;54.20;;;;;;4970259;28;20662;-49
2022/03/10 05:29:00;;;;;;;3.25;2.05;;;25.40;54.20;;;;;;4971147;28;20202;-48
2022/03/10 05:31:32;;;;;;;3.65;2.20;;;25.40;54.20;;;;;;4970766;28;21466;-47
2022/03/10 05:34:02;;;;;;;3.83;2.13;;;25.40;54.10;;;;;;4970946;28;20265;-47
2022/03/10 05:36:34;;;;;;;3.63;2.58;;;25.30;54.10;;;;;;4970911;28;20733;-47
2022/03/10 05:39:07;;;;;;;5.03;2.40;;;25.30;54.00;;;;;;4970767;28;20641;-45
2022/03/10 05:41:37;;;;;;;3.60;2.20;;;25.30;54.10;;;;;;4970997;28;20194;-45
2022/03/10 05:44:08;;;;;;;4.40;2.38;;;25.30;54.10;;;;;;4970259;28;20210;-47
2022/03/10 05:46:39;;;;;;;3.67;2.33;;;25.30;54.10;;;;;;4970704;28;20198;-47
2022/03/10 05:49:09;;;;;;;4.30;2.53;;;25.30;54.10;;;;;;4970106;28;20194;-47
2022/03/10 05:51:40;;;;;;;3.38;2.40;;;25.30;54.10;;;;;;4970613;28;20194;-47
2022/03/10 05:54:12;;;;;;;2.30;2.10;;;25.30;54.10;;;;;;4970187;28;20214;-46
2022/03/10 05:56:43;;;;;;;4.15;2.30;;;25.30;54.20;;;;;;4969134;28;20194;-48
2022/03/10 05:59:13;;;;;;;3.53;2.35;;;25.20;54.20;;;;;;4969831;28;20956;-48
2022/03/10 06:01:44;;;;;;;3.65;2.17;;;25.20;54.30;;;;;;4969315;28;20296;-46
2022/03/10 06:04:15;;;;;;;3.15;2.20;;;25.20;54.20;;;;;;4970054;28;20835;-48
2022/03/10 06:06:45;;;;;;;3.17;2.50;;;25.20;54.30;;;;;;4971158;28;20265;-47
2022/03/10 06:09:18;;;;;;;5.07;2.50;;;25.20;54.20;;;;;;4970096;28;20269;-46
2022/03/10 06:11:48;;;;;;;3.28;2.33;;;25.20;54.20;;;;;;4970429;28;20194;-48
2022/03/10 06:14:20;;;;;;;3.85;2.30;;;25.20;54.20;;;;;;4969539;28;20210;-49
2022/03/10 06:16:50;;;;;;;3.03;2.53;;;25.20;54.20;;;;;;4969230;28;20277;-46
2022/03/10 06:19:21;;;;;;;5.13;2.08;;;25.10;54.20;;;;;;4969859;28;20226;-46
2022/03/10 06:21:51;;;;;;;3.17;2.15;;;25.20;54.30;;;;;;4969837;28;20194;-47
2022/03/10 06:24:24;;;;;;;2.65;2.40;;;25.10;54.20;;;;;;4969565;28;20254;-47
2022/03/10 06:26:54;;;;;;;3.38;2.30;;;25.10;54.30;;;;;;4969423;28;20654;-46
2022/03/10 06:29:25;;;;;;;4.43;2.47;;;25.10;54.30;;;;;;4969877;28;20202;-48
2022/03/10 06:31:55;;;;;;;3.45;2.45;;;25.10;54.30;;;;;;4969794;28;20198;-47
2022/03/10 06:34:26;;;;;;;2.88;2.00;;;25.10;54.30;;;;;;4969822;28;20214;-47
2022/03/10 06:36:57;;;;;;;2.20;2.00;;;25.10;54.30;;;;;;4970347;28;20194;-47
2022/03/10 06:39:30;;;;;;;3.63;2.58;;;25.10;54.30;;;;;;4970601;28;20236;-48
2022/03/10 06:42:00;;;;;;;3.03;2.42;;;25.10;54.40;;;;;;4971203;28;20268;-47
2022/03/10 06:44:31;;;;;;;3.83;2.50;;;25.00;54.40;;;;;;4971070;28;20289;-48
2022/03/10 06:47:01;;;;;;;3.33;2.40;;;25.00;54.40;;;;;;4971071;28;20209;-47
2022/03/10 06:49:32;;;;;;;3.55;2.38;;;25.00;54.40;;;;;;4970764;28;20253;-47
2022/03/10 06:52:03;;;;;;;2.55;2.13;;;25.00;54.50;;;;;;4971060;28;20208;-47
2022/03/10 06:54:35;;;;;;;3.20;2.30;;;25.00;54.50;;;;;;4971463;28;20273;-48
2022/03/10 06:57:06;;;;;;;4.28;2.75;;;25.00;54.50;;;;;;4972491;28;20269;-47
2022/03/10 06:59:37;;;;;;;2.78;2.35;;;24.90;54.50;;;;;;4972702;28;20221;-48
2022/03/10 07:02:08;;;;;;;3.70;2.20;;;24.90;54.50;;;;;;4972776;28;20245;-48
2022/03/10 07:04:38;;;;;;;2.58;2.30;;;24.90;54.50;;;;;;4972246;28;20218;-48
2022/03/10 07:07:09;;;;;;;2.88;2.15;;;24.90;54.50;;;;;;4973118;28;20206;-47
2022/03/10 07:09:42;;;;;;;3.88;2.60;;;24.90;54.60;;;;;;4972476;28;20206;-46
2022/03/10 07:12:13;;;;;;;3.38;2.53;;;24.80;54.60;;;;;;4972509;28;20261;-47
2022/03/10 07:14:44;;;;;;;2.83;2.28;;;24.90;54.70;;;;;;4972251;28;20748;-47
2022/03/10 07:17:14;;;;;;;3.35;2.35;;;24.80;54.60;;;;;;4971785;28;20253;-47
2022/03/10 07:19:45;;;;;;;2.60;2.40;;;24.80;54.60;;;;;;4972227;28;20733;-46
2022/03/10 07:22:20;;;;;;;3.08;2.40;;;24.80;54.70;;;;;;4972411;28;20588;-47
2022/03/10 07:24:52;;;;;;;2.40;2.17;;;24.80;54.70;;;;;;4972801;28;20308;-48
2022/03/10 07:27:23;;;;;;;2.40;2.20;;;24.70;54.70;;;;;;4972511;28;20257;-46
2022/03/10 07:29:54;;;;;;;2.42;2.13;;;24.70;54.70;;;;;;4971479;28;20569;-46
2022/03/10 07:32:27;;;;;;;3.05;2.35;;;24.70;54.70;;;;;;4969930;28;20245;-46
2022/03/10 07:34:58;;;;;;;3.10;2.50;;;24.70;54.90;;;;;;4971717;28;20229;-48
2022/03/10 07:37:28;;;;;;;2.55;2.30;;;24.70;54.70;;;;;;4971966;28;20651;-46
2022/03/10 07:40:01;;;;;;;3.58;2.47;;;24.60;54.70;;;;;;4971890;28;20281;-46
2022/03/10 07:42:31;;;;;;;3.08;2.55;;;24.60;54.70;;;;;;4972196;28;20618;-47
2022/03/10 07:45:02;;;;;;;2.33;2.10;;;24.60;54.80;;;;;;4972433;28;20226;-48
2022/03/10 07:47:33;;;;;;;2.90;2.45;;;24.60;55.40;;;;;;4974447;28;20592;-47
2022/03/10 07:50:03;;;;;;;3.28;2.35;;;24.50;54.80;;;;;;4973408;28;20194;-47
2022/03/10 07:52:34;;;;;;;3.05;2.30;;;24.50;54.90;;;;;;4975563;28;20198;-46
2022/03/10 07:55:08;;;;;;;2.70;2.30;;;24.50;54.90;;;;;;4975450;28;20222;-46
2022/03/10 07:57:39;;;;;;;3.45;2.40;;;24.50;54.90;;;;;;4975565;28;20285;-47
2022/03/10 08:00:10;;;;;;;2.47;2.25;;;24.50;54.90;;;;;;4975389;28;20230;-47
2022/03/10 08:02:41;;;;;;;2.50;2.20;;;24.50;55.00;;;;;;4975379;28;20261;-46
2022/03/10 08:05:12;;;;;;;2.30;2.10;;;24.40;54.90;;;;;;4974987;28;20221;-47
2022/03/10 08:07:43;;;;;;;3.08;2.40;;;24.40;54.80;;;;;;4975334;28;20210;-46
2022/03/10 08:10:15;;;;;;;3.15;2.33;;;24.40;54.80;;;;;;4975419;28;20198;-46
2022/03/10 08:12:46;;;;;;;3.28;2.50;;;24.40;54.80;;;;;;4975461;28;20206;-47
2022/03/10 08:15:17;;;;;;;2.80;2.30;;;24.40;54.90;;;;;;4975295;28;20222;-47
2022/03/10 08:17:47;;;;;;;3.45;2.35;;;24.30;54.80;;;;;;4975113;28;20224;-46
2022/03/10 08:20:18;;;;;;;3.75;2.30;;;24.30;54.80;;;;;;4974777;28;20230;-45
2022/03/10 08:22:48;;;;;;;3.72;2.53;;;24.30;54.90;;;;;;4974975;28;20289;-46
2022/03/10 08:25:21;;;;;;;4.50;2.72;;;24.30;55.00;;;;;;4975225;28;20214;-48
2022/03/10 08:27:52;;;;;;;3.28;2.55;;;24.20;54.90;;;;;;4974942;28;20288;-48
2022/03/10 08:30:22;;;;;;;3.92;2.58;;;24.20;55.00;;;;;;4974928;28;20210;-46
2022/03/10 08:32:53;;;;;;;3.17;2.20;;;24.20;54.90;;;;;;4975051;28;20198;-47
2022/03/10 08:35:23;;;;;;;2.80;2.50;;;24.20;55.00;;;;;;4974843;28;20221;-49
2022/03/10 08:37:54;;;;;;;3.45;2.42;;;24.20;55.00;;;;;;4975310;28;20206;-50
2022/03/10 08:40:28;;;;;;;2.22;2.00;;;24.10;54.90;;;;;;4974832;28;20226;-53
2022/03/10 08:43:00;;;;;;;7.20;2.92;;;24.10;54.90;;;;;;4974584;28;20221;-51
2022/03/10 08:45:30;;;;;;;6.05;2.30;;;24.10;55.10;;;;;;4974797;28;20209;-46
2022/03/10 08:48:01;;;;;;;8.10;3.08;;;24.10;55.20;;;;;;4974843;28;20198;-47
2022/03/10 08:50:32;;;;;;;8.50;2.83;;;24.10;55.10;;;;;;4974358;28;20249;-48
2022/03/10 08:53:02;;;;;;;7.25;2.75;;;24.10;55.20;;;;;;4974317;28;20801;-45
2022/03/10 08:55:35;;;;;;;5.13;2.97;;;24.10;55.30;;;;;;4974122;28;20198;-47
2022/03/10 08:58:05;;;;;;;4.82;2.70;;;24.00;55.30;;;;;;4973755;28;20334;-47
2022/03/10 09:00:36;;;;;;;7.90;2.83;;;24.00;55.30;;;;;;4974319;28;20230;-48
2022/03/10 09:03:07;;;;;;;3.95;2.50;;;24.00;55.40;;;;;;4974092;28;20253;-49
2022/03/10 09:05:37;;;;;;;7.85;2.65;;;24.00;55.50;;;;;;4974111;28;20616;-47
2022/03/10 09:08:09;;;;;;;5.55;2.83;;;24.00;55.60;;;;;;4974643;28;20206;-47
2022/03/10 09:10:41;;;;;;;8.38;3.10;;;24.00;55.60;;;;;;4974065;28;20202;-48
2022/03/10 09:13:12;;;;;;;5.80;3.83;;;23.90;55.60;;;;;;4974135;28;20204;-48
2022/03/10 09:15:45;;;;;;;6.32;3.42;;;23.90;55.70;;;;;;4974138;28;20721;-47
2022/03/10 09:18:16;;;;;;;5.50;3.13;;;23.90;55.80;;;;;;4973847;28;20213;-48
2022/03/10 09:20:47;;;;;;;6.47;3.42;;;23.90;55.80;;;;;;4973920;28;20225;-48
2022/03/10 09:23:17;;;;;;;5.40;3.80;;;23.80;55.80;;;;;;4973790;28;20202;-47
2022/03/10 09:25:49;;;;;;;6.10;3.67;;;23.80;56.00;;;;;;4967414;28;20202;-48
2022/03/10 09:28:20;;;;;;;9.82;3.40;;;23.80;56.00;;;;;;4970755;28;20605;-49
2022/03/10 09:30:51;;;;;;;6.20;3.75;;;23.80;56.00;;;;;;4971033;28;20225;-46
2022/03/10 09:33:21;;;;;;;8.82;3.45;;;23.80;56.00;;;;;;4970001;28;20202;-48
2022/03/10 09:35:52;;;;;;;5.28;2.92;;;23.80;56.00;;;;;;4969484;28;20202;-47
2022/03/10 09:38:23;;;;;;;8.35;3.42;;;23.70;56.00;;;;;;4970074;28;20253;-47
2022/03/10 09:40:55;;;;;;;7.47;5.10;;;23.70;55.90;;;;;;4970210;28;20270;-49
2022/03/10 09:43:31;;;;;;;7.00;4.32;;;23.70;56.20;;;;;;4970196;28;20225;-46
2022/03/10 09:46:02;;;;;;;7.75;4.50;;;23.70;56.40;;;;;;4969710;28;20202;-47
2022/03/10 09:48:35;;;;;;;7.00;4.53;;;23.70;56.40;;;;;;4970185;28;20253;-48
2022/03/10 09:51:05;;;;;;;6.93;4.10;;;23.70;56.40;;;;;;4969466;28;20331;-48
2022/03/10 09:53:36;;;;;;;5.88;3.88;;;23.60;56.30;;;;;;4969380;28;20690;-48
2022/03/10 09:56:09;;;;;;;6.88;4.30;;;23.60;56.30;;;;;;4968990;28;20257;-46
2022/03/10 09:58:39;;;;;;;5.35;3.72;;;23.60;56.30;;;;;;4970080;28;20261;-49
2022/03/10 10:01:10;;;;;;;6.25;4.00;;;23.50;56.20;;;;;;4969605;28;20202;-48
2022/03/10 10:03:41;;;;;;;7.18;4.30;;;23.50;56.20;;;;;;4968869;28;20284;-46
2022/03/10 10:06:11;;;;;;;5.28;3.92;;;23.50;56.20;;;;;;4969534;28;20190;-47
2022/03/10 10:08:42;;;;;;;5.50;3.78;;;23.50;56.20;;;;;;4968379;28;20206;-48
2022/03/10 10:11:17;;;;;;;5.93;4.00;;;23.50;56.20;;;;;;4969909;28;20202;-47
2022/03/10 10:13:52;;;;;;;6.32;3.92;;;23.50;56.20;;;;;;4968851;28;20304;-48
2022/03/10 10:16:22;;;;;;;6.88;4.32;;;23.40;56.20;;;;;;4969206;28;20194;-48
2022/03/10 10:18:58;;;;;;;5.38;3.88;;;23.40;56.20;;;;;;4969083;28;20273;-49
2022/03/10 10:21:29;;;;;;;4.93;3.92;;;23.40;56.20;;;;;;4969553;28;20700;-49
2022/03/10 10:23:59;;;;;;;5.25;3.80;;;23.40;56.20;;;;;;4969424;28;20223;-47
2022/03/10 10:26:35;;;;;;;4.78;3.75;;;23.40;56.80;;;;;;4968691;28;20194;-48
2022/03/10 10:29:06;;;;;;;5.50;3.53;;;23.30;56.20;;;;;;4969888;28;20216;-47
2022/03/10 10:31:40;;;;;;;4.63;3.42;;;23.30;56.20;;;;;;4969958;28;20198;-46
2022/03/10 10:34:11;;;;;;;6.32;3.70;;;23.30;56.20;;;;;;4969230;28;20232;-48
2022/03/10 10:36:43;;;;;;;5.18;3.63;;;23.30;56.10;;;;;;4969617;28;20202;-45
2022/03/10 10:39:16;;;;;;;4.32;3.55;;;23.30;56.10;;;;;;4969474;28;20236;-46
2022/03/10 10:41:49;;;;;;;4.57;3.60;;;23.20;56.10;;;;;;4969151;28;20194;-47
2022/03/10 10:44:23;;;;;;;4.55;3.63;;;23.20;56.10;;;;;;4969613;28;20217;-47
2022/03/10 10:46:59;;;;;;;5.72;3.90;;;23.20;56.10;;;;;;4969302;28;20198;-47
2022/03/10 10:49:35;;;;;;;4.85;3.53;;;23.20;56.10;;;;;;4969881;28;20204;-47
2022/03/10 10:52:12;;;;;;;5.07;3.50;;;23.20;56.00;;;;;;4969669;28;20190;-49
2022/03/10 10:54:43;;;;;;;4.50;3.58;;;23.20;56.00;;;;;;4969259;28;20240;-47
2022/03/10 10:57:23;;;;;;;4.60;3.20;;;23.20;56.00;;;;;;4968705;28;20194;-47
2022/03/10 11:00:08;;;;;;;3.70;3.15;;;23.10;56.00;;;;;;4969030;28;20780;-49
2022/03/10 11:02:41;;;;;;;5.15;3.42;;;23.10;56.00;;;;;;4969186;28;20212;-47
2022/03/10 11:05:14;;;;;;;6.18;3.58;;;23.10;56.00;;;;;;4969116;28;20646;-47
2022/03/10 11:07:45;;;;;;;4.45;3.22;;;23.00;56.00;;;;;;4972385;28;20213;-46
2022/03/10 11:10:16;;;;;;;3.78;3.10;;;23.00;56.00;;;;;;4972317;28;20257;-46
2022/03/10 11:12:48;;;;;;;4.15;3.70;;;23.00;56.10;;;;;;4972172;28;20256;-46
2022/03/10 11:15:19;;;;;;;4.25;3.35;;;23.00;56.10;;;;;;4972528;28;20218;-45
2022/03/10 11:17:49;;;;;;;5.13;3.13;;;22.90;56.00;;;;;;4972296;28;20252;-47
2022/03/10 11:20:22;;;;;;;4.15;3.20;;;22.90;56.00;;;;;;4971693;28;20215;-48
2022/03/10 11:23:03;;;;;;;4.97;3.55;;;22.90;56.10;;;;;;4975488;28;20256;-49
2022/03/10 11:25:45;;;;;;;5.40;3.17;;;22.90;56.00;;;;;;4976234;28;20198;-46
2022/03/10 11:28:20;;;;;;;4.75;3.30;;;22.90;56.10;;;;;;4975811;28;20233;-46
2022/03/10 11:30:53;;;;;;;4.32;3.03;;;22.90;56.10;;;;;;4975379;28;20205;-49
2022/03/10 11:33:30;;;;;;;3.35;3.03;;;22.90;56.10;;;;;;4975337;28;20281;-49
2022/03/10 11:36:01;;;;;;;3.75;2.92;;;22.80;56.00;;;;;;4972486;28;20194;-46
2022/03/10 11:38:53;;;;;;;3.65;2.80;;;22.80;56.00;;;;;;4975660;28;20224;-46
2022/03/10 11:41:26;;;;;;;4.20;3.13;;;22.80;56.00;;;;;;4975554;28;20702;-47
2022/03/10 11:44:04;;;;;;;3.03;2.72;;;22.80;56.00;;;;;;4975122;28;20219;-46
2022/03/10 11:46:36;;;;;;;3.85;3.00;;;22.70;55.90;;;;;;4975210;28;20688;-48
2022/03/10 11:49:11;;;;;;;3.05;2.75;;;22.70;55.90;;;;;;4974998;28;20194;-47
2022/03/10 11:51:52;;;;;;;4.00;3.00;;;22.70;55.90;;;;;;4975385;28;20285;-47
2022/03/10 11:54:24;;;;;;;3.58;3.28;;;22.70;56.00;;;;;;4975364;28;20226;-48
2022/03/10 11:57:06;;;;;;;3.60;2.88;;;22.60;55.90;;;;;;4973998;28;20257;-47
2022/03/10 11:59:57;;;;;;;5.05;2.90;;;22.60;55.90;;;;;;4955919;28;20223;-46
2022/03/10 12:02:41;;;;;;;3.35;2.90;;;22.60;56.00;;;;;;4956020;28;20203;-53
2022/03/10 12:05:14;;;;;;;4.88;3.08;;;22.60;56.00;;;;;;4955668;28;20632;-50
2022/03/10 12:07:46;;;;;;;3.70;2.67;;;22.50;56.00;;;;;;4962250;28;20253;-51
2022/03/10 12:10:17;;;;;;;3.78;2.90;;;22.50;56.00;;;;;;4975443;28;20202;-49
2022/03/10 12:12:48;;;;;;;3.75;2.80;;;22.50;56.00;;;;;;4975266;28;20249;-50
2022/03/10 12:15:44;;;;;;;2.90;2.65;;;22.50;56.00;;;;;;4975090;28;20229;-48
2022/03/10 12:18:25;;;;;;;3.85;3.00;;;22.50;56.00;;;;;;4970050;28;20602;-48
2022/03/10 12:20:59;;;;;;;3.15;2.67;;;22.50;56.00;;;;;;4974692;28;20222;-48
2022/03/10 12:23:32;;;;;;;3.30;2.83;;;22.40;55.90;;;;;;4974758;28;20218;-47
2022/03/10 12:26:09;;;;;;;3.42;2.83;;;22.40;56.00;;;;;;4975134;28;20705;-50
2022/03/10 12:28:42;;;;;;;2.80;2.50;;;22.40;56.00;;;;;;4975030;28;20289;-47
2022/03/10 12:31:18;;;;;;;2.95;2.65;;;22.30;55.90;;;;;;4974578;28;20307;-49
2022/03/10 12:33:52;;;;;;;2.67;2.42;;;22.30;55.90;;;;;;4974309;28;20224;-51
2022/03/10 12:36:34;;;;;;;2.90;2.60;;;22.30;55.90;;;;;;4974511;28;20351;-47
2022/03/10 12:39:06;;;;;;;2.53;2.20;;;22.30;55.90;;;;;;4974882;28;20289;-50
2022/03/10 12:41:40;;;;;;;2.80;2.58;;;22.30;55.90;;;;;;4974906;28;20453;-49
2022/03/10 12:44:12;;;;;;;3.85;2.58;;;22.30;55.90;;;;;;4974277;28;20268;-50
2022/03/10 12:46:46;;;;;;;3.08;2.67;;;22.20;55.90;;;;;;4974602;28;20249;-48
2022/03/10 12:49:25;;;;;;;2.53;2.30;;;22.20;55.90;;;;;;4974231;28;20198;-46
2022/03/10 12:51:58;;;;;;;3.40;2.70;;;22.20;55.90;;;;;;4974197;28;20252;-47
2022/03/10 12:54:30;;;;;;;3.17;2.60;;;22.20;55.90;;;;;;4974607;28;20226;-49
2022/03/10 12:57:00;;;;;;;3.08;2.50;;;22.20;56.00;;;;;;4974666;28;20206;-47
2022/03/10 12:59:33;;;;;;;3.17;2.40;;;22.10;56.00;;;;;;4974332;28;20281;-47
2022/03/10 13:02:18;;;;;;;3.40;2.70;;;22.10;55.90;;;;;;4974062;28;20217;-50
2022/03/10 13:04:53;;;;;;;3.05;2.63;;;22.10;56.00;;;;;;4973557;28;20222;-48
2022/03/10 13:07:26;;;;;;;3.83;2.50;;;22.10;56.00;;;;;;4974082;28;20210;-46
2022/03/10 13:09:57;;;;;;;2.40;2.20;;;22.10;56.00;;;;;;4974207;28;20210;-47
2022/03/10 13:12:29;;;;;;;2.88;2.55;;;22.00;55.90;;;;;;4974009;28;20206;-46
2022/03/10 13:15:01;;;;;;;3.28;2.42;;;22.00;55.90;;;;;;4973948;28;20589;-48
2022/03/10 13:17:37;;;;;;;2.65;2.45;;;22.00;55.90;;;;;;4974027;28;20261;-48
2022/03/10 13:20:19;;;;;;;2.70;2.50;;;22.00;55.90;;;;;;4973729;28;20236;-51
2022/03/10 13:22:51;;;;;;;2.30;2.13;;;22.00;56.00;;;;;;4973763;28;20202;-47
2022/03/10 13:25:25;;;;;;;2.58;2.38;;;22.00;55.90;;;;;;4973692;28;20226;-47
2022/03/10 13:28:01;;;;;;;3.00;2.45;;;22.00;55.90;;;;;;4973511;28;20202;-47
2022/03/10 13:30:33;;;;;;;2.95;2.67;;;21.90;55.90;;;;;;4972424;28;20257;-45
2022/03/10 13:33:06;;;;;;;3.03;2.50;;;21.90;55.90;;;;;;4973042;28;20256;-45
2022/03/10 13:35:41;;;;;;;2.90;2.63;;;21.90;55.90;;;;;;4973289;28;20658;-46
2022/03/10 13:38:18;;;;;;;2.38;2.17;;;21.90;55.90;;;;;;4973303;28;20732;-48
2022/03/10 13:40:49;;;;;;;2.58;2.38;;;21.80;55.80;;;;;;4973247;28;20527;-46
2022/03/10 13:43:28;;;;;;;3.08;2.35;;;21.80;55.90;;;;;;4972853;28;20249;-47
2022/03/10 13:46:09;;;;;;;2.88;2.28;;;21.80;55.90;;;;;;4973597;28;20209;-46
2022/03/10 13:48:47;;;;;;;2.80;2.33;;;21.80;55.90;;;;;;4973928;28;20260;-47
2022/03/10 13:51:20;;;;;;;2.33;2.10;;;21.70;55.80;;;;;;4972833;28;20256;-47
2022/03/10 13:54:00;;;;;;;2.20;2.00;;;21.80;56.00;;;;;;4972950;28;20218;-45
2022/03/10 13:56:39;;;;;;;2.45;2.25;;;21.80;56.00;;;;;;4972738;28;20617;-47
2022/03/10 13:59:10;;;;;;;3.17;2.03;;;21.70;55.90;;;;;;4973033;28;20571;-46
2022/03/10 14:01:41;;;;;;;2.35;2.10;;;21.70;56.00;;;;;;4973124;28;20305;-46
2022/03/10 14:04:15;;;;;;;3.00;2.40;;;21.70;56.00;;;;;;4971820;28;20210;-47
2022/03/10 14:06:49;;;;;;;2.20;2.00;;;21.70;56.00;;;;;;4971789;28;20766;-71
2022/03/10 14:09:21;;;;;;;2.60;2.40;;;21.60;55.90;;;;;;4973136;28;20209;-47
2022/03/10 14:11:52;;;;;;;2.15;1.95;;;21.60;55.90;;;;;;4972420;28;20198;-45
2022/03/10 14:14:36;;;;;;;3.30;2.10;;;21.60;56.00;;;;;;4973016;28;20497;-48
2022/03/10 14:17:07;;;;;;;2.25;2.03;;;21.60;55.90;;;;;;4972896;28;20745;-46
2022/03/10 14:19:40;;;;;;;2.55;2.35;;;21.60;55.90;;;;;;4972863;28;20198;-46
2022/03/10 14:22:19;;;;;;;2.20;2.00;;;21.60;55.90;;;;;;4972762;28;20652;-47